sensor_id;sensor_type;location;lat;lon;timestamp;temperature;humidity
20957;DHT22;10637;47.970;7.830;2023-02-08T00:03:48;-0.90;99.90
20957;DHT22;10637;47.970;7.830;2023-02-08T00:08:50;-0.90;99.90
20957;DHT22;10637;47.970;7.830;2023-02-08T00:13:52;-0.80;99.90
20957;DHT22;10637;47.970;7.830;2023-02-08T00:18:53;-0.70;99.90
20957;DHT22;10637;47.970;7.830;2023-02-08T00:23:55;-0.70;99.90
20957;DHT22;10637;47.970;7.830;2023-02-08T00:28:57;-1.10;99.90
20957;DHT22;10637;47.970;7.830;2023-02-08T00:33:59;-1.20;99.90
20957;DHT22;10637;47.970;7.830;2023-02-08T00:39:01;-1.10;99.90
20957;DHT22;10637;47.970;7.830;2023-02-08T00:44:02;-0.90;99.90
20957;DHT22;10637;47.970;7.830;2023-02-08T00:49:04;-1.20;99.90
20957;DHT22;10637;47.970;7.830;2023-02-08T00:54:06;-1.30;99.90
20957;DHT22;10637;47.970;7.830;2023-02-08T00:59:07;-1.40;99.90
20957;DHT22;10637;47.970;7.830;2023-02-08T01:04:09;-1.40;99.90
20957;DHT22;10637;47.970;7.830;2023-02-08T01:09:11;-1.20;99.90
20957;DHT22;10637;47.970;7.830;2023-02-08T01:14:12;-1.10;99.90
20957;DHT22;10637;47.970;7.830;2023-02-08T01:19:15;-1.10;99.90
20957;DHT22;10637;47.970;7.830;2023-02-08T01:24:16;-1.30;99.90
20957;DHT22;10637;47.970;7.830;2023-02-08T01:29:18;-1.40;99.90
20957;DHT22;10637;47.970;7.830;2023-02-08T01:34:20;-1.20;99.90
20957;DHT22;10637;47.970;7.830;2023-02-08T01:39:21;-1.80;99.90
20957;DHT22;10637;47.970;7.830;2023-02-08T01:50:02;-1.60;99.90
20957;DHT22;10637;47.970;7.830;2023-02-08T01:55:16;-1.60;99.90
20957;DHT22;10637;47.970;7.830;2023-02-08T02:00:21;-1.60;99.90
20957;DHT22;10637;47.970;7.830;2023-02-08T02:05:38;-1.50;99.90
20957;DHT22;10637;47.970;7.830;2023-02-08T02:10:41;-1.60;99.90
20957;DHT22;10637;47.970;7.830;2023-02-08T02:15:44;-1.70;99.90
20957;DHT22;10637;47.970;7.830;2023-02-08T02:26:20;-1.60;99.90
20957;DHT22;10637;47.970;7.830;2023-02-08T02:31:36;-1.50;99.90
20957;DHT22;10637;47.970;7.830;2023-02-08T02:42:19;-1.50;99.90
20957;DHT22;10637;47.970;7.830;2023-02-08T02:53:05;-1.70;99.90
20957;DHT22;10637;47.970;7.830;2023-02-08T02:58:10;-1.50;99.90
20957;DHT22;10637;47.970;7.830;2023-02-08T03:03:21;-1.70;99.90
20957;DHT22;10637;47.970;7.830;2023-02-08T03:13:50;-1.80;99.90
20957;DHT22;10637;47.970;7.830;2023-02-08T03:24:29;-1.80;99.90
20957;DHT22;10637;47.970;7.830;2023-02-08T03:40:39;-1.90;99.90
20957;DHT22;10637;47.970;7.830;2023-02-08T03:45:46;-1.80;99.90
20957;DHT22;10637;47.970;7.830;2023-02-08T03:50:52;-2.00;99.90
20957;DHT22;10637;47.970;7.830;2023-02-08T03:55:59;-2.10;99.90
20957;DHT22;10637;47.970;7.830;2023-02-08T04:01:06;-2.30;99.90
20957;DHT22;10637;47.970;7.830;2023-02-08T04:06:09;-2.10;99.90
20957;DHT22;10637;47.970;7.830;2023-02-08T04:11:11;-2.00;99.90
20957;DHT22;10637;47.970;7.830;2023-02-08T04:16:12;-2.20;99.90
20957;DHT22;10637;47.970;7.830;2023-02-08T04:21:14;-2.20;99.90
20957;DHT22;10637;47.970;7.830;2023-02-08T04:26:16;-2.20;99.90
20957;DHT22;10637;47.970;7.830;2023-02-08T04:31:17;-2.30;99.90
20957;DHT22;10637;47.970;7.830;2023-02-08T04:36:19;-2.30;99.90
20957;DHT22;10637;47.970;7.830;2023-02-08T04:41:21;-2.30;99.90
20957;DHT22;10637;47.970;7.830;2023-02-08T04:46:23;-2.40;99.90
20957;DHT22;10637;47.970;7.830;2023-02-08T04:51:25;-2.40;99.90
20957;DHT22;10637;47.970;7.830;2023-02-08T04:56:30;-2.60;99.90
20957;DHT22;10637;47.970;7.830;2023-02-08T05:01:32;-2.60;99.90
20957;DHT22;10637;47.970;7.830;2023-02-08T05:06:34;-2.90;99.90
20957;DHT22;10637;47.970;7.830;2023-02-08T05:11:36;-3.00;99.90
20957;DHT22;10637;47.970;7.830;2023-02-08T05:16:38;-2.80;99.90
20957;DHT22;10637;47.970;7.830;2023-02-08T05:21:39;-2.70;99.90
20957;DHT22;10637;47.970;7.830;2023-02-08T05:26:41;-2.80;99.90
20957;DHT22;10637;47.970;7.830;2023-02-08T05:31:43;-2.70;99.90
20957;DHT22;10637;47.970;7.830;2023-02-08T05:36:45;-2.90;99.90
20957;DHT22;10637;47.970;7.830;2023-02-08T05:41:46;-2.80;99.90
20957;DHT22;10637;47.970;7.830;2023-02-08T05:46:48;-2.90;99.90
20957;DHT22;10637;47.970;7.830;2023-02-08T05:51:50;-2.70;99.90
20957;DHT22;10637;47.970;7.830;2023-02-08T05:56:51;-2.70;99.90
20957;DHT22;10637;47.970;7.830;2023-02-08T06:01:53;-2.70;99.90
20957;DHT22;10637;47.970;7.830;2023-02-08T06:06:55;-2.70;99.90
20957;DHT22;10637;47.970;7.830;2023-02-08T06:11:57;-2.70;99.90
20957;DHT22;10637;47.970;7.830;2023-02-08T06:16:59;-2.60;99.90
20957;DHT22;10637;47.970;7.830;2023-02-08T06:22:00;-2.80;99.90
20957;DHT22;10637;47.970;7.830;2023-02-08T06:27:02;-2.80;99.90
20957;DHT22;10637;47.970;7.830;2023-02-08T06:32:04;-2.90;99.90
20957;DHT22;10637;47.970;7.830;2023-02-08T06:37:06;-2.90;99.90
20957;DHT22;10637;47.970;7.830;2023-02-08T06:42:08;-3.10;99.90
20957;DHT22;10637;47.970;7.830;2023-02-08T06:47:09;-3.10;99.90
20957;DHT22;10637;47.970;7.830;2023-02-08T06:52:11;-2.90;99.90
20957;DHT22;10637;47.970;7.830;2023-02-08T06:57:13;-2.90;99.90
20957;DHT22;10637;47.970;7.830;2023-02-08T07:02:17;-2.80;99.90
20957;DHT22;10637;47.970;7.830;2023-02-08T07:07:19;-2.70;99.90
20957;DHT22;10637;47.970;7.830;2023-02-08T07:12:21;-2.80;99.90
20957;DHT22;10637;47.970;7.830;2023-02-08T07:17:23;-2.70;99.90
20957;DHT22;10637;47.970;7.830;2023-02-08T07:22:24;-2.50;99.90
20957;DHT22;10637;47.970;7.830;2023-02-08T07:27:26;-2.50;99.90
20957;DHT22;10637;47.970;7.830;2023-02-08T07:32:28;-2.40;99.90
20957;DHT22;10637;47.970;7.830;2023-02-08T07:37:30;-2.40;99.90
20957;DHT22;10637;47.970;7.830;2023-02-08T07:42:33;-2.50;99.90
20957;DHT22;10637;47.970;7.830;2023-02-08T07:47:35;-2.40;99.90
20957;DHT22;10637;47.970;7.830;2023-02-08T07:52:36;-2.80;99.90
20957;DHT22;10637;47.970;7.830;2023-02-08T07:57:38;-2.60;99.90
20957;DHT22;10637;47.970;7.830;2023-02-08T08:02:40;-2.70;99.90
20957;DHT22;10637;47.970;7.830;2023-02-08T08:07:42;-2.50;99.90
20957;DHT22;10637;47.970;7.830;2023-02-08T08:12:44;-2.30;99.90
20957;DHT22;10637;47.970;7.830;2023-02-08T08:17:46;-1.60;99.90
20957;DHT22;10637;47.970;7.830;2023-02-08T08:22:47;-0.60;99.90
20957;DHT22;10637;47.970;7.830;2023-02-08T08:27:49;0.70;99.90
20957;DHT22;10637;47.970;7.830;2023-02-08T08:32:51;1.20;99.30
20957;DHT22;10637;47.970;7.830;2023-02-08T08:37:53;2.10;97.70
20957;DHT22;10637;47.970;7.830;2023-02-08T08:42:55;2.70;97.80
20957;DHT22;10637;47.970;7.830;2023-02-08T08:47:57;4.10;95.30
20957;DHT22;10637;47.970;7.830;2023-02-08T08:53:01;4.50;94.40
20957;DHT22;10637;47.970;7.830;2023-02-08T08:58:02;5.00;91.20
20957;DHT22;10637;47.970;7.830;2023-02-08T09:03:04;5.00;90.90
20957;DHT22;10637;47.970;7.830;2023-02-08T09:08:06;5.50;83.70
20957;DHT22;10637;47.970;7.830;2023-02-08T09:13:08;6.00;80.30
20957;DHT22;10637;47.970;7.830;2023-02-08T09:18:10;6.30;76.80
20957;DHT22;10637;47.970;7.830;2023-02-08T09:23:12;6.00;76.60
20957;DHT22;10637;47.970;7.830;2023-02-08T09:28:15;5.60;78.20
20957;DHT22;10637;47.970;7.830;2023-02-08T09:33:16;6.70;74.50
20957;DHT22;10637;47.970;7.830;2023-02-08T09:38:18;7.90;70.70
20957;DHT22;10637;47.970;7.830;2023-02-08T09:43:28;8.40;69.20
20957;DHT22;10637;47.970;7.830;2023-02-08T09:48:39;10.10;67.30
20957;DHT22;10637;47.970;7.830;2023-02-08T09:53:46;10.40;63.00
20957;DHT22;10637;47.970;7.830;2023-02-08T09:58:51;11.20;60.50
20957;DHT22;10637;47.970;7.830;2023-02-08T10:04:24;11.20;61.00
20957;DHT22;10637;47.970;7.830;2023-02-08T10:09:28;12.10;58.60
20957;DHT22;10637;47.970;7.830;2023-02-08T10:14:38;12.20;59.40
20957;DHT22;10637;47.970;7.830;2023-02-08T10:20:03;14.00;54.80
20957;DHT22;10637;47.970;7.830;2023-02-08T10:30:45;14.30;53.60
20957;DHT22;10637;47.970;7.830;2023-02-08T10:35:53;16.20;50.60
20957;DHT22;10637;47.970;7.830;2023-02-08T10:41:00;15.00;53.00
20957;DHT22;10637;47.970;7.830;2023-02-08T10:46:29;16.50;50.50
20957;DHT22;10637;47.970;7.830;2023-02-08T10:51:33;16.60;49.80
20957;DHT22;10637;47.970;7.830;2023-02-08T10:57:03;18.80;46.10
20957;DHT22;10637;47.970;7.830;2023-02-08T11:02:27;18.00;44.40
20957;DHT22;10637;47.970;7.830;2023-02-08T11:07:31;17.10;47.80
20957;DHT22;10637;47.970;7.830;2023-02-08T11:12:36;16.30;47.30
20957;DHT22;10637;47.970;7.830;2023-02-08T11:17:38;18.20;47.40
20957;DHT22;10637;47.970;7.830;2023-02-08T11:22:44;18.00;47.60
20957;DHT22;10637;47.970;7.830;2023-02-08T11:27:49;18.40;46.70
20957;DHT22;10637;47.970;7.830;2023-02-08T11:33:19;17.60;47.40
20957;DHT22;10637;47.970;7.830;2023-02-08T11:38:23;17.40;47.50
20957;DHT22;10637;47.970;7.830;2023-02-08T11:43:33;16.40;47.80
20957;DHT22;10637;47.970;7.830;2023-02-08T11:48:44;16.20;50.80
20957;DHT22;10637;47.970;7.830;2023-02-08T11:53:49;17.20;49.10
20957;DHT22;10637;47.970;7.830;2023-02-08T12:04:14;17.20;49.20
20957;DHT22;10637;47.970;7.830;2023-02-08T12:15:21;17.80;47.30
20957;DHT22;10637;47.970;7.830;2023-02-08T12:20:43;18.40;46.70
20957;DHT22;10637;47.970;7.830;2023-02-08T12:25:56;19.10;44.20
20957;DHT22;10637;47.970;7.830;2023-02-08T12:52:50;20.10;44.10
20957;DHT22;10637;47.970;7.830;2023-02-08T12:57:58;20.90;43.70
20957;DHT22;10637;47.970;7.830;2023-02-08T13:14:05;21.90;41.90
20957;DHT22;10637;47.970;7.830;2023-02-08T13:19:34;21.80;39.80
20957;DHT22;10637;47.970;7.830;2023-02-08T13:24:40;19.70;44.70
20957;DHT22;10637;47.970;7.830;2023-02-08T13:29:47;22.10;41.90
20957;DHT22;10637;47.970;7.830;2023-02-08T13:34:54;21.20;41.40
20957;DHT22;10637;47.970;7.830;2023-02-08T13:40:21;22.20;41.10
20957;DHT22;10637;47.970;7.830;2023-02-08T13:50:50;20.80;41.60
20957;DHT22;10637;47.970;7.830;2023-02-08T13:55:58;21.10;42.20
20957;DHT22;10637;47.970;7.830;2023-02-08T14:01:25;20.90;41.10
20957;DHT22;10637;47.970;7.830;2023-02-08T14:06:30;20.10;43.30
20957;DHT22;10637;47.970;7.830;2023-02-08T14:11:43;19.90;43.50
20957;DHT22;10637;47.970;7.830;2023-02-08T14:17:07;18.80;44.40
20957;DHT22;10637;47.970;7.830;2023-02-08T14:32:40;17.90;47.60
20957;DHT22;10637;47.970;7.830;2023-02-08T14:37:43;16.50;47.80
20957;DHT22;10637;47.970;7.830;2023-02-08T14:53:23;12.70;55.20
20957;DHT22;10637;47.970;7.830;2023-02-08T14:58:32;12.80;55.80
20957;DHT22;10637;47.970;7.830;2023-02-08T15:03:35;13.00;53.00
20957;DHT22;10637;47.970;7.830;2023-02-08T15:08:37;13.20;53.70
20957;DHT22;10637;47.970;7.830;2023-02-08T15:13:38;12.30;55.70
20957;DHT22;10637;47.970;7.830;2023-02-08T15:18:45;11.90;56.20
20957;DHT22;10637;47.970;7.830;2023-02-08T15:28:59;12.40;54.80
20957;DHT22;10637;47.970;7.830;2023-02-08T15:34:01;11.10;57.80
20957;DHT22;10637;47.970;7.830;2023-02-08T15:39:14;10.70;59.10
20957;DHT22;10637;47.970;7.830;2023-02-08T15:44:26;9.30;61.80
20957;DHT22;10637;47.970;7.830;2023-02-08T15:49:32;8.10;66.50
20957;DHT22;10637;47.970;7.830;2023-02-08T15:54:34;7.30;69.70
20957;DHT22;10637;47.970;7.830;2023-02-08T15:59:37;6.60;72.60
20957;DHT22;10637;47.970;7.830;2023-02-08T16:04:44;5.90;75.10
20957;DHT22;10637;47.970;7.830;2023-02-08T16:09:46;5.60;77.70
20957;DHT22;10637;47.970;7.830;2023-02-08T16:14:49;5.40;78.50
20957;DHT22;10637;47.970;7.830;2023-02-08T16:19:53;5.10;80.40
20957;DHT22;10637;47.970;7.830;2023-02-08T16:25:21;4.20;84.30
20957;DHT22;10637;47.970;7.830;2023-02-08T16:30:23;3.60;87.50
20957;DHT22;10637;47.970;7.830;2023-02-08T16:35:28;3.60;87.50
20957;DHT22;10637;47.970;7.830;2023-02-08T16:51:19;3.20;91.00
20957;DHT22;10637;47.970;7.830;2023-02-08T16:56:22;2.90;92.00
20957;DHT22;10637;47.970;7.830;2023-02-08T17:01:25;2.20;93.10
20957;DHT22;10637;47.970;7.830;2023-02-08T17:06:30;1.80;94.10
20957;DHT22;10637;47.970;7.830;2023-02-08T17:11:32;2.00;93.90
20957;DHT22;10637;47.970;7.830;2023-02-08T17:16:35;2.10;94.20
20957;DHT22;10637;47.970;7.830;2023-02-08T17:21:37;2.00;94.20
20957;DHT22;10637;47.970;7.830;2023-02-08T17:26:41;1.40;95.10
20957;DHT22;10637;47.970;7.830;2023-02-08T17:31:43;1.30;95.20
20957;DHT22;10637;47.970;7.830;2023-02-08T17:36:46;1.30;95.60
20957;DHT22;10637;47.970;7.830;2023-02-08T17:41:49;1.10;96.30
20957;DHT22;10637;47.970;7.830;2023-02-08T17:46:50;1.30;95.90
20957;DHT22;10637;47.970;7.830;2023-02-08T17:51:52;1.40;95.70
20957;DHT22;10637;47.970;7.830;2023-02-08T17:56:54;1.40;95.50
20957;DHT22;10637;47.970;7.830;2023-02-08T18:01:59;1.10;96.20
20957;DHT22;10637;47.970;7.830;2023-02-08T18:07:00;1.00;96.30
20957;DHT22;10637;47.970;7.830;2023-02-08T18:12:02;0.90;96.40
20957;DHT22;10637;47.970;7.830;2023-02-08T18:17:05;0.80;96.60
20957;DHT22;10637;47.970;7.830;2023-02-08T18:22:07;0.70;96.70
20957;DHT22;10637;47.970;7.830;2023-02-08T18:27:09;0.70;96.80
20957;DHT22;10637;47.970;7.830;2023-02-08T18:32:11;0.50;97.10
20957;DHT22;10637;47.970;7.830;2023-02-08T18:37:13;0.50;97.40
20957;DHT22;10637;47.970;7.830;2023-02-08T18:42:15;0.60;97.10
20957;DHT22;10637;47.970;7.830;2023-02-08T18:47:16;0.60;97.30
20957;DHT22;10637;47.970;7.830;2023-02-08T18:52:18;0.80;97.20
20957;DHT22;10637;47.970;7.830;2023-02-08T18:57:20;0.30;97.70
20957;DHT22;10637;47.970;7.830;2023-02-08T19:02:22;0.20;98.40
20957;DHT22;10637;47.970;7.830;2023-02-08T19:07:24;0.30;97.80
20957;DHT22;10637;47.970;7.830;2023-02-08T19:12:26;0.30;97.80
20957;DHT22;10637;47.970;7.830;2023-02-08T19:17:28;0.30;97.80
20957;DHT22;10637;47.970;7.830;2023-02-08T19:22:30;0.40;97.50
20957;DHT22;10637;47.970;7.830;2023-02-08T19:27:32;0.60;97.00
20957;DHT22;10637;47.970;7.830;2023-02-08T19:32:33;0.30;97.40
20957;DHT22;10637;47.970;7.830;2023-02-08T19:37:35;0.40;97.30
20957;DHT22;10637;47.970;7.830;2023-02-08T19:42:37;0.60;96.90
20957;DHT22;10637;47.970;7.830;2023-02-08T19:47:42;0.50;97.40
20957;DHT22;10637;47.970;7.830;2023-02-08T19:52:52;0.30;97.50
20957;DHT22;10637;47.970;7.830;2023-02-08T19:57:53;-0.10;98.50
20957;DHT22;10637;47.970;7.830;2023-02-08T20:02:55;-0.10;98.00
20957;DHT22;10637;47.970;7.830;2023-02-08T20:07:59;-0.20;98.50
20957;DHT22;10637;47.970;7.830;2023-02-08T20:13:01;-0.10;98.40
20957;DHT22;10637;47.970;7.830;2023-02-08T20:18:03;-0.10;98.40
20957;DHT22;10637;47.970;7.830;2023-02-08T20:23:06;-0.30;98.50
20957;DHT22;10637;47.970;7.830;2023-02-08T20:28:22;-0.40;98.60
20957;DHT22;10637;47.970;7.830;2023-02-08T20:33:24;-0.20;98.40
20957;DHT22;10637;47.970;7.830;2023-02-08T20:38:26;0.00;98.00
20957;DHT22;10637;47.970;7.830;2023-02-08T20:43:27;0.00;97.80
20957;DHT22;10637;47.970;7.830;2023-02-08T20:48:29;-0.30;98.10
20957;DHT22;10637;47.970;7.830;2023-02-08T20:53:32;0.00;98.00
20957;DHT22;10637;47.970;7.830;2023-02-08T20:58:34;-0.10;98.10
20957;DHT22;10637;47.970;7.830;2023-02-08T21:03:36;-0.40;98.60
20957;DHT22;10637;47.970;7.830;2023-02-08T21:08:38;-0.20;98.20
20957;DHT22;10637;47.970;7.830;2023-02-08T21:13:40;-0.20;97.80
20957;DHT22;10637;47.970;7.830;2023-02-08T21:18:42;-0.30;98.20
20957;DHT22;10637;47.970;7.830;2023-02-08T21:23:45;-0.50;98.70
20957;DHT22;10637;47.970;7.830;2023-02-08T21:28:50;-0.40;98.50
20957;DHT22;10637;47.970;7.830;2023-02-08T21:33:52;-0.60;98.40
20957;DHT22;10637;47.970;7.830;2023-02-08T21:38:55;-0.60;98.50
20957;DHT22;10637;47.970;7.830;2023-02-08T21:43:59;-0.50;98.60
20957;DHT22;10637;47.970;7.830;2023-02-08T21:49:01;-0.30;97.80
20957;DHT22;10637;47.970;7.830;2023-02-08T21:54:24;-0.40;97.80
20957;DHT22;10637;47.970;7.830;2023-02-08T21:59:42;-0.20;97.60
20957;DHT22;10637;47.970;7.830;2023-02-08T22:04:44;-0.30;97.80
20957;DHT22;10637;47.970;7.830;2023-02-08T22:10:08;-0.50;98.10
20957;DHT22;10637;47.970;7.830;2023-02-08T22:15:12;-0.40;98.00
20957;DHT22;10637;47.970;7.830;2023-02-08T22:20:15;-0.50;98.20
20957;DHT22;10637;47.970;7.830;2023-02-08T22:25:17;-0.60;98.60
20957;DHT22;10637;47.970;7.830;2023-02-08T22:30:19;-0.60;98.70
20957;DHT22;10637;47.970;7.830;2023-02-08T22:35:23;-0.60;98.70
20957;DHT22;10637;47.970;7.830;2023-02-08T22:40:25;-0.60;99.00
20957;DHT22;10637;47.970;7.830;2023-02-08T22:45:26;-0.70;98.70
20957;DHT22;10637;47.970;7.830;2023-02-08T22:50:28;-0.70;98.60
20957;DHT22;10637;47.970;7.830;2023-02-08T22:55:30;-0.70;98.70
20957;DHT22;10637;47.970;7.830;2023-02-08T23:00:31;-0.90;98.50
20957;DHT22;10637;47.970;7.830;2023-02-08T23:05:33;-1.00;99.00
20957;DHT22;10637;47.970;7.830;2023-02-08T23:10:35;-1.00;99.30
20957;DHT22;10637;47.970;7.830;2023-02-08T23:15:40;-1.00;99.50
20957;DHT22;10637;47.970;7.830;2023-02-08T23:20:42;-1.00;99.30
20957;DHT22;10637;47.970;7.830;2023-02-08T23:25:44;-1.10;99.30
20957;DHT22;10637;47.970;7.830;2023-02-08T23:30:46;-1.10;99.30
20957;DHT22;10637;47.970;7.830;2023-02-08T23:35:48;-1.30;99.60
20957;DHT22;10637;47.970;7.830;2023-02-08T23:40:50;-1.30;99.60
20957;DHT22;10637;47.970;7.830;2023-02-08T23:45:51;-1.30;99.80
20957;DHT22;10637;47.970;7.830;2023-02-08T23:50:58;-1.30;99.60
20957;DHT22;10637;47.970;7.830;2023-02-08T23:56:15;-1.20;99.60
